createdAt,value
2023-06-01T00:00:59.372Z,55.96
2023-06-01T00:06:17.439Z,56.21
2023-06-01T00:11:19.314Z,57.62
2023-06-01T00:16:23.520Z,57.57
2023-06-01T00:21:25.738Z,57.49
2023-06-01T00:26:28.137Z,57.59
2023-06-01T00:31:30.072Z,58.13
2023-06-01T00:36:32.702Z,57.90
2023-06-01T00:41:34.705Z,58.03
2023-06-01T00:46:38.222Z,58.19
2023-06-01T00:51:41.597Z,58.29
2023-06-01T00:56:43.828Z,58.63
2023-06-01T01:01:45.797Z,59.22
2023-06-01T01:07:12.940Z,59.07
2023-06-01T01:12:37.450Z,58.90
2023-06-01T01:17:47.007Z,59.43
2023-06-01T01:23:32.120Z,59.84
2023-06-01T01:28:41.038Z,60.53
2023-06-01T01:33:46.221Z,60.03
2023-06-01T01:38:48.167Z,60.88
2023-06-01T01:43:51.283Z,60.94
2023-06-01T01:49:04.178Z,61.49
2023-06-01T01:54:08.538Z,60.64
2023-06-01T01:59:11.156Z,62.17
2023-06-01T02:04:13.047Z,64.14
2023-06-01T02:09:14.913Z,65.24
2023-06-01T02:14:16.779Z,65.18
2023-06-01T02:19:18.658Z,64.97
2023-06-01T02:24:20.536Z,65.21
2023-06-01T02:29:25.496Z,66.33
2023-06-01T02:34:27.286Z,66.64
2023-06-01T02:39:29.137Z,66.78
2023-06-01T02:44:30.917Z,66.63
2023-06-01T02:49:32.723Z,65.86
2023-06-01T02:54:34.571Z,65.91
2023-06-01T02:59:36.439Z,66.13
2023-06-01T03:04:38.784Z,66.24
2023-06-01T03:09:40.912Z,66.36
2023-06-01T03:14:43.001Z,66.47
2023-06-01T03:19:44.876Z,66.29
2023-06-01T03:24:50.141Z,66.11
2023-06-01T03:29:52.315Z,65.71
2023-06-01T03:34:54.207Z,65.95
2023-06-01T03:39:56.302Z,65.55
2023-06-01T03:44:58.255Z,65.68
2023-06-01T03:50:02.006Z,65.71
2023-06-01T03:55:11.094Z,65.85
2023-06-01T04:00:19.399Z,65.01
2023-06-01T04:05:26.350Z,64.97
2023-06-01T04:10:28.236Z,64.29
2023-06-01T04:15:29.958Z,64.11
2023-06-01T04:20:33.106Z,63.70
2023-06-01T04:25:35.201Z,63.04
2023-06-01T04:30:37.794Z,63.13
2023-06-01T04:35:39.705Z,62.76
2023-06-01T04:40:42.660Z,62.42
2023-06-01T04:45:44.579Z,62.28
2023-06-01T04:50:47.338Z,62.10
2023-06-01T04:55:49.394Z,61.97
2023-06-01T05:00:52.021Z,61.94
2023-06-01T05:05:53.905Z,62.20
2023-06-01T05:10:55.882Z,62.01
2023-06-01T05:15:57.895Z,62.19
2023-06-01T05:21:03.564Z,61.95
2023-06-01T05:26:06.644Z,61.65
2023-06-01T05:31:08.741Z,61.58
2023-06-01T05:36:10.904Z,61.49
2023-06-01T05:41:12.709Z,61.51
2023-06-01T05:46:14.603Z,61.19
2023-06-01T05:51:16.742Z,60.97
2023-06-01T05:56:18.806Z,60.67
2023-06-01T06:01:21.309Z,60.60
2023-06-01T06:06:24.905Z,60.60
2023-06-01T06:11:27.505Z,60.04
2023-06-01T06:16:29.405Z,59.36
2023-06-01T06:21:32.138Z,57.72
2023-06-01T06:26:34.102Z,57.73
2023-06-01T06:31:35.968Z,56.49
2023-06-01T06:36:38.265Z,55.67
2023-06-01T06:41:43.511Z,54.85
2023-06-01T06:46:45.748Z,53.13
2023-06-01T06:51:47.872Z,51.94
2023-06-01T06:56:49.843Z,52.00
2023-06-01T07:01:51.710Z,50.81
2023-06-01T07:06:54.116Z,50.45
2023-06-01T07:11:55.989Z,50.01
2023-06-01T07:16:58.018Z,51.05
2023-06-01T07:22:01.968Z,50.59
2023-06-01T07:27:06.358Z,50.48
2023-06-01T07:32:09.675Z,50.17
2023-06-01T07:37:17.636Z,49.57
2023-06-01T07:42:21.379Z,47.24
2023-06-01T07:47:25.863Z,48.31
2023-06-01T07:52:28.020Z,47.42
2023-06-01T07:57:29.881Z,46.93
2023-06-01T08:02:32.023Z,46.77
2023-06-01T08:07:34.458Z,46.10
2023-06-01T08:12:37.050Z,46.52
2023-06-01T08:17:39.344Z,46.00
2023-06-01T08:22:42.243Z,46.42
2023-06-01T08:27:44.875Z,47.10
2023-06-01T08:32:46.967Z,43.67
2023-06-01T08:37:49.023Z,44.31
2023-06-01T08:43:06.852Z,43.44
2023-06-01T08:48:14.618Z,43.35
2023-06-01T08:53:22.025Z,42.87
2023-06-01T08:58:26.339Z,42.70
2023-06-01T09:03:28.283Z,42.12
2023-06-01T09:08:30.719Z,42.33
2023-06-01T09:13:38.454Z,41.71
2023-06-01T09:18:55.944Z,40.54
2023-06-01T09:24:22.964Z,41.47
2023-06-01T09:29:24.789Z,41.85
2023-06-01T09:34:26.885Z,41.29
2023-06-01T09:39:35.161Z,41.26
2023-06-01T09:44:43.121Z,42.60
2023-06-01T09:49:45.822Z,41.78
2023-06-01T09:54:55.468Z,41.79
2023-06-01T09:59:58.388Z,41.78
2023-06-01T10:05:01.621Z,42.60
2023-06-01T10:10:04.687Z,42.01
2023-06-01T10:15:20.527Z,42.03
2023-06-01T10:20:39.749Z,42.22
2023-06-01T10:25:47.521Z,40.83
2023-06-01T10:31:36.226Z,39.96
2023-06-01T10:36:53.882Z,40.63
2023-06-01T10:41:58.894Z,40.58
2023-06-01T10:47:01.112Z,39.62
2023-06-01T10:52:28.440Z,39.45
2023-06-01T10:57:30.609Z,39.85
2023-06-01T11:02:33.859Z,40.08
2023-06-01T11:07:39.408Z,40.29
2023-06-01T11:13:18.570Z,38.76
2023-06-01T11:18:42.152Z,38.92
2023-06-01T11:23:48.922Z,39.11
2023-06-01T11:28:53.597Z,38.17
2023-06-01T11:33:57.902Z,36.81
2023-06-01T11:39:06.376Z,38.16
2023-06-01T11:44:19.100Z,38.07
2023-06-01T11:49:22.161Z,37.87
2023-06-01T11:54:27.066Z,36.77
2023-06-01T11:59:41.286Z,36.58
2023-06-01T12:04:43.987Z,36.01
2023-06-01T12:09:46.375Z,35.13
2023-06-01T12:14:50.787Z,34.03
2023-06-01T12:19:53.303Z,35.37
2023-06-01T12:24:55.277Z,36.06
2023-06-01T12:29:59.043Z,36.03
2023-06-01T12:35:08.176Z,34.95
2023-06-01T12:40:11.836Z,33.22
2023-06-01T12:45:13.849Z,33.83
2023-06-01T12:50:16.367Z,34.58
2023-06-01T12:55:19.231Z,34.83
2023-06-01T13:00:26.914Z,34.28
2023-06-01T13:05:29.641Z,33.41
2023-06-01T13:10:32.237Z,34.22
2023-06-01T13:15:35.683Z,34.49
2023-06-01T13:20:39.964Z,34.19
2023-06-01T13:25:41.869Z,34.49
2023-06-01T13:30:44.256Z,35.49
2023-06-01T13:35:47.258Z,35.28
2023-06-01T13:40:49.262Z,33.70
2023-06-01T13:45:51.549Z,33.40
2023-06-01T13:50:53.710Z,33.20
2023-06-01T13:55:55.823Z,33.92
2023-06-01T14:00:57.616Z,35.24
2023-06-01T14:05:59.445Z,35.69
2023-06-01T14:11:01.988Z,36.99
2023-06-01T14:16:04.516Z,37.06
2023-06-01T14:21:06.728Z,37.40
2023-06-01T14:26:08.704Z,36.80
2023-06-01T14:31:10.522Z,36.49
2023-06-01T14:36:12.567Z,36.69
2023-06-01T14:41:14.647Z,37.13
2023-06-01T14:46:16.637Z,38.11
2023-06-01T14:51:18.713Z,37.72
2023-06-01T14:56:22.948Z,37.31
2023-06-01T15:01:25.202Z,37.19
2023-06-01T15:06:27.348Z,38.27
2023-06-01T15:11:29.698Z,37.60
2023-06-01T15:16:32.123Z,37.95
2023-06-01T15:21:34.438Z,38.47
2023-06-01T15:26:36.597Z,40.31
2023-06-01T15:31:38.885Z,42.55
2023-06-01T15:36:40.920Z,43.28
2023-06-01T15:41:43.125Z,44.51
2023-06-01T15:46:46.600Z,45.01
2023-06-01T15:51:48.510Z,46.14
2023-06-01T15:56:50.478Z,47.63
2023-06-01T16:01:53.834Z,48.66
2023-06-01T16:06:57.204Z,48.20
2023-06-01T16:11:59.101Z,48.40
2023-06-01T16:17:01.448Z,48.63
2023-06-01T16:22:04.812Z,48.12
2023-06-01T16:27:08.348Z,47.75
2023-06-01T16:32:10.561Z,48.37
2023-06-01T16:37:12.780Z,49.01
2023-06-01T16:42:14.864Z,49.31
2023-06-01T16:47:16.773Z,50.10
2023-06-01T16:52:18.717Z,50.17
2023-06-01T16:57:22.076Z,50.74
2023-06-01T17:02:24.140Z,50.66
2023-06-01T17:07:26.120Z,50.71
2023-06-01T17:12:27.967Z,51.67
2023-06-01T17:17:30.049Z,53.17
2023-06-01T17:22:32.328Z,54.99
2023-06-01T17:27:34.287Z,56.51
2023-06-01T17:32:36.798Z,56.17
2023-06-01T17:37:39.030Z,56.27
2023-06-01T17:42:41.080Z,56.76
2023-06-01T17:47:43.074Z,57.23
2023-06-01T17:52:45.168Z,57.95
2023-06-01T17:57:47.324Z,59.03
2023-06-01T18:02:50.357Z,59.61
2023-06-01T18:07:53.124Z,60.51
2023-06-01T18:12:55.217Z,61.92
2023-06-01T18:17:57.128Z,62.60
2023-06-01T18:22:59.168Z,62.56
2023-06-01T18:28:00.981Z,62.94
2023-06-01T18:33:03.245Z,63.38
2023-06-01T18:38:05.152Z,63.47
2023-06-01T18:43:11.588Z,63.26
2023-06-01T18:48:13.823Z,63.40
2023-06-01T18:53:16.370Z,64.15
2023-06-01T18:58:18.156Z,64.78
2023-06-01T19:03:20.250Z,65.33
2023-06-01T19:08:22.610Z,66.19
2023-06-01T19:13:37.297Z,66.67
2023-06-01T19:18:39.861Z,66.38
2023-06-01T19:23:54.129Z,66.04
2023-06-01T19:29:06.372Z,66.53
2023-06-01T19:34:10.562Z,67.08
2023-06-01T19:39:27.171Z,67.36
2023-06-01T19:44:31.509Z,68.27
2023-06-01T19:49:40.918Z,68.43
2023-06-01T19:54:43.745Z,67.68
2023-06-01T19:59:45.719Z,67.55
2023-06-01T20:04:47.892Z,68.04
2023-06-01T20:09:50.616Z,68.36
2023-06-01T20:14:52.876Z,68.95
2023-06-01T20:19:55.277Z,69.57
2023-06-01T20:24:57.141Z,69.63
2023-06-01T20:30:03.408Z,69.32
2023-06-01T20:35:09.705Z,69.87
2023-06-01T20:40:42.711Z,70.21
2023-06-01T20:46:04.141Z,70.82
2023-06-01T20:51:36.952Z,71.08
2023-06-01T20:56:57.369Z,71.03
2023-06-01T21:02:08.765Z,71.33
2023-06-01T21:07:10.646Z,71.80
2023-06-01T21:12:12.436Z,72.27
2023-06-01T21:17:14.911Z,72.14
2023-06-01T21:22:17.098Z,72.44
2023-06-01T21:27:18.975Z,71.86
2023-06-01T21:32:21.046Z,72.40
2023-06-01T21:37:22.920Z,72.82
2023-06-01T21:42:24.826Z,73.03
2023-06-01T21:47:26.595Z,73.45
2023-06-01T21:52:28.568Z,73.88
2023-06-01T21:57:30.651Z,73.95
2023-06-01T22:02:32.544Z,73.63
2023-06-01T22:07:34.531Z,73.92
2023-06-01T22:12:36.518Z,74.29
2023-06-01T22:17:39.325Z,75.11
2023-06-01T22:22:41.209Z,75.33
2023-06-01T22:27:43.748Z,75.75
2023-06-01T22:32:45.998Z,76.22
2023-06-01T22:37:47.904Z,76.00
2023-06-01T22:42:51.479Z,76.36
2023-06-01T22:47:54.952Z,76.53
2023-06-01T22:52:56.823Z,76.86
2023-06-01T22:57:58.613Z,76.94
2023-06-01T23:03:00.608Z,76.87
2023-06-01T23:08:11.895Z,76.90
2023-06-01T23:13:15.189Z,77.43
2023-06-01T23:18:17.498Z,77.14
2023-06-01T23:23:19.586Z,76.93
2023-06-01T23:28:21.457Z,76.63
2023-06-01T23:33:23.653Z,76.66
2023-06-01T23:38:25.848Z,76.49
2023-06-01T23:43:27.683Z,76.54
2023-06-01T23:48:29.478Z,76.21
2023-06-01T23:53:31.332Z,76.17
2023-06-01T23:58:33.726Z,76.36
